createdAt,value
2022-10-01T07:31:39.540Z,8.20
2022-10-01T07:36:33.695Z,7.63
2022-10-01T07:41:27.488Z,6.47
2022-10-01T07:46:21.269Z,6.40
2022-10-01T07:51:16.507Z,6.30
2022-10-01T07:56:10.489Z,6.27
2022-10-01T08:01:05.820Z,7.57
2022-10-01T08:05:59.570Z,6.83
2022-10-01T08:10:55.051Z,7.10
2022-10-01T08:15:53.644Z,6.13
2022-10-01T08:20:47.711Z,5.07
2022-10-01T08:25:41.908Z,4.93
2022-10-01T08:30:39.516Z,5.90
2022-10-01T08:35:34.061Z,5.73
2022-10-01T08:40:27.925Z,5.55
2022-10-01T08:45:27.069Z,6.30
2022-10-01T08:50:33.460Z,6.50
2022-10-01T08:55:36.480Z,7.13
2022-10-01T09:00:32.080Z,7.05
2022-10-01T09:05:38.093Z,8.48
2022-10-01T09:10:44.681Z,9.40
2022-10-01T09:15:45.540Z,8.63
2022-10-01T09:20:45.286Z,8.43
2022-10-01T09:25:40.600Z,7.78
2022-10-01T09:30:36.694Z,7.85
2022-10-01T09:35:38.195Z,8.13
2022-10-01T09:40:40.581Z,7.47
2022-10-01T09:45:34.516Z,8.40
2022-10-01T09:50:40.203Z,7.60
2022-10-01T09:55:40.421Z,7.30
2022-10-01T10:00:36.107Z,7.30
2022-10-01T10:05:32.572Z,6.90
2022-10-01T10:10:31.229Z,6.95
2022-10-01T10:15:27.555Z,6.93
2022-10-01T10:20:30.064Z,6.68
2022-10-01T10:25:27.113Z,5.50
2022-10-01T10:30:20.986Z,5.10
2022-10-01T10:35:21.826Z,5.03
2022-10-01T10:40:23.575Z,5.10
2022-10-01T10:45:22.947Z,4.93
2022-10-01T10:50:32.261Z,4.93
2022-10-01T10:55:28.477Z,5.45
2022-10-01T11:00:25.420Z,5.18
2022-10-01T11:05:25.700Z,4.75
2022-10-01T11:10:33.341Z,4.78
2022-10-01T11:15:45.609Z,5.15
2022-10-01T11:20:53.981Z,5.10
2022-10-01T11:25:56.045Z,5.55
2022-10-01T11:30:58.338Z,5.47
2022-10-01T11:36:03.006Z,5.03
2022-10-01T11:41:04.843Z,4.82
2022-10-01T11:46:04.761Z,5.28
2022-10-01T11:51:04.178Z,5.45
2022-10-01T11:56:19.776Z,5.50
2022-10-01T12:01:18.930Z,5.40
2022-10-01T12:06:16.367Z,5.30
2022-10-01T12:11:18.194Z,5.18
2022-10-01T12:16:20.124Z,5.22
2022-10-01T12:21:31.498Z,5.15
2022-10-01T12:26:36.389Z,4.97
2022-10-01T12:31:37.946Z,5.53
2022-10-01T12:36:46.590Z,5.07
2022-10-01T12:41:50.858Z,4.75
2022-10-01T12:46:52.152Z,4.32
2022-10-01T12:51:55.310Z,4.95
2022-10-01T12:56:55.251Z,4.63
2022-10-01T13:02:01.014Z,12.75
2022-10-01T13:07:18.802Z,10.68
2022-10-01T13:12:27.474Z,5.63
2022-10-01T13:17:34.622Z,6.10
2022-10-01T13:22:40.294Z,5.55
2022-10-01T13:27:42.322Z,4.88
2022-10-01T13:32:39.310Z,4.80
2022-10-01T13:37:37.640Z,5.53
2022-10-01T13:42:43.311Z,5.35
2022-10-01T13:47:41.509Z,6.07
2022-10-01T13:52:37.176Z,4.63
2022-10-01T13:57:34.385Z,4.97
2022-10-01T14:02:34.349Z,5.30
2022-10-01T14:07:35.509Z,5.57
2022-10-01T14:12:51.321Z,4.90
2022-10-01T14:17:51.603Z,5.07
2022-10-01T14:23:03.434Z,5.38
2022-10-01T14:28:12.543Z,5.85
2022-10-01T14:33:33.569Z,5.25
2022-10-01T14:38:27.514Z,5.18
2022-10-01T14:43:24.522Z,5.88
2022-10-01T14:48:20.546Z,5.15
2022-10-01T14:53:18.255Z,5.35
2022-10-01T14:58:25.947Z,5.15
2022-10-01T15:03:19.945Z,11.02
2022-10-01T15:08:14.707Z,9.02
2022-10-01T15:13:08.757Z,10.60
2022-10-01T15:18:05.771Z,5.75
2022-10-01T15:23:01.730Z,5.53
2022-10-01T15:27:56.837Z,7.80
2022-10-01T15:32:51.863Z,8.25
2022-10-01T15:37:50.402Z,6.45
2022-10-01T15:43:34.293Z,5.85
2022-10-01T15:48:32.081Z,9.15
2022-10-01T15:53:28.807Z,6.20
2022-10-01T15:58:24.783Z,6.20
2022-10-01T16:03:23.478Z,8.15
2022-10-01T16:08:21.986Z,9.98
2022-10-01T16:13:39.476Z,9.23
2022-10-01T16:18:37.606Z,7.32
2022-10-01T16:23:42.508Z,7.32
2022-10-01T16:28:38.471Z,7.03
2022-10-01T16:33:32.343Z,10.80
2022-10-01T16:38:27.279Z,7.85
2022-10-01T16:43:24.568Z,7.38
2022-10-01T16:48:23.135Z,11.93
2022-10-01T16:53:19.519Z,14.45
2022-10-01T16:58:14.808Z,7.65
2022-10-01T17:03:13.516Z,7.57
2022-10-01T17:08:11.550Z,8.85
2022-10-01T17:13:05.494Z,11.63
2022-10-01T17:18:00.638Z,14.13
2022-10-01T17:22:54.430Z,14.75
2022-10-01T17:27:50.340Z,12.18
2022-10-01T17:32:45.154Z,12.95
2022-10-01T17:37:39.493Z,16.63
2022-10-01T17:42:36.652Z,20.08
